Terminal Aerodrome Forecast
Issued by NWS Cleveland, OH

Home | Current Version | Previous Version | Graphics & Text | Print | Product List | Glossary On
Versions: 1 2 3 4 5 6 7 8 9 10 11 12 13 14 15 16 17 18 19 20 21 22 23 24 25 26 27 28 29 30
000
FTUS41 KCLE 152100 AAA
TAFCLE
TAF AMD
KCLE 152103Z 1521/1624 04018KT P6SM BKN200
     FM160030 10008KT P6SM OVC200
     FM161400 16010G20KT P6SM BKN040 OVC080
      TEMPO 1616/1620 -SHRA SCT030 OVC050=

USA.gov is the U.S. government's official web portal to all federal, state and local government web resources and services.